Time;durP1;ratioP1;P1;durP2;ratioP2;P2;SDS_P1;SDS_P2;PMS_P1;PMS_P2;Temp;Humidity;BMP_temperature;BMP_pressure;BME280_temperature;BME280_humidity;BME280_pressure;Samples;Min_cycle;Max_cycle;Signal;HPM_P1;HPM_P2
2022/11/10 00:01:05;;;;;;;37.90;22.00;;;7.50;99.90;;;;;;5130369;27;40150;-78
2022/11/10 00:03:52;;;;;;;;;;;7.50;99.90;;;;;;5130826;27;44842;-78
2022/11/10 00:06:39;;;;;;;37.70;22.33;;;7.50;99.90;;;;;;5130170;27;43856;-76
2022/11/10 00:09:26;;;;;;;;;;;7.50;99.90;;;;;;5131544;27;40476;-78
2022/11/10 00:12:14;;;;;;;34.90;21.35;;;7.50;99.90;;;;;;5129822;27;40604;-79
2022/11/10 00:18:13;;;;;;;33.90;20.77;;;7.50;99.90;;;;;;5110428;27;43046;-79
2022/11/10 00:21:04;;;;;;;38.67;23.70;;;7.50;99.90;;;;;;5128695;27;41039;-81
2022/11/10 00:23:50;;;;;;;42.22;22.15;;;7.50;99.90;;;;;;5127877;27;41109;-80
2022/11/10 00:26:37;;;;;;;35.37;22.13;;;7.50;99.90;;;;;;5127627;27;44008;-80
2022/11/10 00:29:25;;;;;;;38.37;21.77;;;7.50;99.90;;;;;;5126867;27;44166;-78
2022/11/10 00:32:12;;;;;;;33.45;21.08;;;7.50;99.90;;;;;;5127791;27;40361;-81
2022/11/10 00:34:58;;;;;;;38.87;22.97;;;7.50;99.90;;;;;;5127836;27;40377;-81
2022/11/10 00:37:45;;;;;;;35.78;21.60;;;7.50;99.90;;;;;;5128495;27;44504;-80
2022/11/10 00:40:31;;;;;;;38.27;23.20;;;7.50;99.90;;;;;;5127985;27;42303;-78
2022/11/10 00:43:18;;;;;;;34.20;21.15;;;7.50;99.90;;;;;;5127734;27;41234;-80
2022/11/10 00:46:06;;;;;;;39.28;22.40;;;7.50;99.90;;;;;;5128569;27;40970;-78
2022/11/10 00:48:53;;;;;;;38.42;21.85;;;7.50;99.90;;;;;;5128111;27;43574;-80
2022/11/10 00:51:39;;;;;;;42.20;22.70;;;7.40;99.90;;;;;;5112806;27;42279;-79
2022/11/10 00:54:26;;;;;;;37.28;22.17;;;7.30;99.90;;;;;;5127290;27;41783;-78
2022/11/10 00:57:12;;;;;;;36.57;24.03;;;7.30;99.90;;;;;;5127053;27;40159;-80
2022/11/10 00:59:59;;;;;;;40.58;22.70;;;7.30;99.90;;;;;;5127328;27;42995;-78
2022/11/10 01:02:47;;;;;;;38.10;22.75;;;7.20;99.90;;;;;;5127257;27;43901;-79
2022/11/10 01:05:36;;;;;;;39.85;22.40;;;7.20;99.90;;;;;;5132694;27;40076;-79
2022/11/10 01:08:23;;;;;;;39.55;23.05;;;7.20;99.90;;;;;;5131231;27;40930;-81
2022/11/10 01:11:12;;;;;;;38.87;22.27;;;7.20;99.90;;;;;;5131982;27;43346;-78
2022/11/10 01:13:59;;;;;;;36.75;22.40;;;7.10;99.90;;;;;;5132659;27;43513;-80
2022/11/10 01:16:46;;;;;;;37.37;23.43;;;7.10;99.90;;;;;;5131893;27;40395;-78
2022/11/10 01:19:34;;;;;;;38.97;22.85;;;7.10;99.90;;;;;;5136527;27;41515;-80
2022/11/10 01:22:20;;;;;;;41.55;23.45;;;7.00;99.90;;;;;;5139538;27;44079;-81
2022/11/10 01:25:08;;;;;;;38.00;24.33;;;7.00;99.90;;;;;;5140994;27;42584;-79
2022/11/10 01:27:54;;;;;;;45.58;24.30;;;6.90;99.90;;;;;;5140361;27;41532;-81
2022/11/10 01:30:41;;;;;;;44.42;24.15;;;6.80;99.90;;;;;;5135428;27;39910;-81
2022/11/10 01:33:27;;;;;;;45.38;25.75;;;6.80;99.90;;;;;;5134837;27;43814;-80
2022/11/10 01:36:15;;;;;;;42.75;25.02;;;6.80;99.90;;;;;;5131782;27;42304;-79
2022/11/10 01:39:02;;;;;;;44.13;25.60;;;6.80;99.90;;;;;;5129591;27;40349;-79
2022/11/10 01:41:48;;;;;;;44.88;25.48;;;6.80;99.90;;;;;;5126929;27;40216;-78
2022/11/10 01:44:36;;;;;;;47.58;25.48;;;6.80;99.90;;;;;;5127352;27;42859;-79
2022/11/10 01:47:22;;;;;;;42.22;24.45;;;6.80;99.90;;;;;;5127009;27;42440;-77
2022/11/10 01:50:09;;;;;;;45.63;25.52;;;6.90;99.90;;;;;;5126906;27;40607;-79
2022/11/10 01:52:59;;;;;;;44.70;26.45;;;6.90;99.90;;;;;;5126638;27;41629;-80
2022/11/10 01:55:47;;;;;;;46.80;26.05;;;6.90;99.90;;;;;;5126515;27;42775;-79
2022/11/10 01:58:38;;;;;;;50.40;29.33;;;6.90;99.90;;;;;;5126304;27;42357;-77
2022/11/10 02:01:25;;;;;;;48.33;27.33;;;7.00;99.90;;;;;;5126226;27;41009;-78
2022/11/10 02:04:15;;;;;;;50.07;27.57;;;7.00;99.90;;;;;;5126726;27;40149;-78
2022/11/10 02:07:02;;;;;;;47.05;27.48;;;7.00;99.90;;;;;;5125595;27;42887;-77
2022/11/10 02:09:50;;;;;;;48.65;26.77;;;7.00;99.90;;;;;;5126611;27;42744;-79
2022/11/10 02:12:36;;;;;;;46.22;27.48;;;7.00;99.90;;;;;;5126628;27;39921;-79
2022/11/10 02:15:24;;;;;;;42.47;26.27;;;7.00;99.90;;;;;;5126161;27;40263;-78
2022/11/10 02:18:11;;;;;;;42.58;26.85;;;7.00;99.90;;;;;;5126196;27;42950;-80
2022/11/10 02:20:59;;;;;;;46.90;27.40;;;7.10;99.90;;;;;;5125508;27;42766;-77
2022/11/10 02:23:47;;;;;;;48.72;27.13;;;7.10;99.90;;;;;;5126306;27;40939;-80
2022/11/10 02:26:35;;;;;;;49.97;27.40;;;7.10;99.90;;;;;;5128444;27;40686;-78
2022/11/10 02:29:22;;;;;;;;;;;7.10;99.90;;;;;;5130301;27;42923;-78
2022/11/10 02:32:08;;;;;;;44.92;27.30;;;7.10;99.90;;;;;;5127242;27;43827;-78
2022/11/10 02:34:55;;;;;;;47.45;27.42;;;7.10;99.90;;;;;;5126683;27;40301;-79
2022/11/10 02:37:43;;;;;;;46.40;28.40;;;7.10;99.90;;;;;;5126859;27;39916;-78
2022/11/10 02:40:29;;;;;;;43.38;27.25;;;7.10;99.90;;;;;;5126250;27;42684;-79
2022/11/10 02:43:17;;;;;;;48.92;29.73;;;7.10;99.90;;;;;;5125952;27;43625;-77
2022/11/10 02:46:04;;;;;;;42.72;26.55;;;7.10;99.90;;;;;;5125738;27;41608;-80
2022/11/10 02:48:50;;;;;;;46.20;27.20;;;7.10;99.90;;;;;;5125154;27;39966;-77
2022/11/10 02:51:36;;;;;;;47.35;27.50;;;7.10;99.90;;;;;;5110877;27;42628;-78
2022/11/10 02:54:24;;;;;;;46.00;26.48;;;7.10;99.90;;;;;;5128338;27;42360;-78
2022/11/10 02:57:11;;;;;;;45.65;27.55;;;7.10;99.90;;;;;;5125583;27;40796;-79
2022/11/10 02:59:57;;;;;;;46.38;27.95;;;7.10;99.90;;;;;;5125984;27;40646;-79
2022/11/10 03:02:44;;;;;;;42.47;25.37;;;7.10;99.90;;;;;;5126090;27;43706;-78
2022/11/10 03:05:31;;;;;;;40.55;26.45;;;7.20;99.90;;;;;;5110745;27;42645;-78
2022/11/10 03:08:17;;;;;;;43.05;26.27;;;7.20;99.90;;;;;;5127700;27;41433;-81
2022/11/10 03:11:05;;;;;;;39.50;24.03;;;7.20;99.90;;;;;;5126763;27;40326;-80
2022/11/10 03:13:52;;;;;;;44.00;27.55;;;7.20;99.90;;;;;;5126064;27;43059;-80
2022/11/10 03:16:39;;;;;;;42.65;25.65;;;7.20;99.90;;;;;;5124833;27;44530;-78
2022/11/10 03:19:26;;;;;;;39.23;24.73;;;7.30;99.90;;;;;;5129511;27;40459;-80
2022/11/10 03:22:12;;;;;;;44.20;27.67;;;7.30;99.90;;;;;;5129116;27;40854;-79
2022/11/10 03:24:59;;;;;;;49.20;26.73;;;7.30;99.90;;;;;;5129816;27;43019;-79
2022/11/10 03:27:47;;;;;;;47.17;26.77;;;7.30;99.90;;;;;;5115008;27;43179;-81
2022/11/10 03:30:34;;;;;;;48.92;27.90;;;7.30;99.90;;;;;;5132617;27;41235;-79
2022/11/10 03:33:20;;;;;;;42.40;25.30;;;7.30;99.90;;;;;;5139859;27;40317;-80
2022/11/10 03:36:07;;;;;;;45.43;27.63;;;7.30;99.90;;;;;;5114326;27;42613;-80
2022/11/10 03:38:54;;;;;;;46.88;26.58;;;7.30;99.90;;;;;;5114211;27;40895;-81
2022/11/10 03:41:40;;;;;;;46.42;26.00;;;7.20;99.90;;;;;;5129462;27;40202;-81
2022/11/10 03:44:28;;;;;;;45.67;26.80;;;7.20;99.90;;;;;;5129087;27;40358;-78
2022/11/10 03:47:14;;;;;;;41.80;24.83;;;7.20;99.90;;;;;;5113176;27;43682;-77
2022/11/10 03:50:01;;;;;;;46.97;27.27;;;7.20;99.90;;;;;;5109685;28;43509;-79
2022/11/10 03:52:47;;;;;;;48.33;27.88;;;7.30;99.90;;;;;;5108701;28;40782;-80
2022/11/10 03:55:34;;;;;;;47.88;28.20;;;7.30;99.90;;;;;;5111782;28;40410;-82
2022/11/10 03:58:20;;;;;;;44.38;27.85;;;7.30;99.90;;;;;;5115940;27;43048;-80
2022/11/10 04:01:09;;;;;;;47.47;26.40;;;7.30;99.90;;;;;;5127740;27;43339;-80
2022/11/10 04:03:56;;;;;;;46.80;26.70;;;7.30;99.90;;;;;;5125863;27;41378;-79
2022/11/10 04:09:52;;;;;;;43.60;26.08;;;7.30;99.90;;;;;;5073642;27;41713;-79
2022/11/10 04:15:43;;;;;;;42.70;25.15;;;7.20;99.90;;;;;;5126247;27;40446;-79
2022/11/10 04:18:31;;;;;;;43.47;26.03;;;7.30;99.90;;;;;;5111996;27;39997;-82
2022/11/10 04:21:18;;;;;;;42.35;25.58;;;7.40;99.90;;;;;;5125985;27;43081;-81
2022/11/10 04:24:04;;;;;;;47.03;27.50;;;7.40;99.90;;;;;;5127569;27;43002;-81
2022/11/10 04:26:51;;;;;;;50.33;28.95;;;7.40;99.90;;;;;;5127689;27;41008;-80
2022/11/10 04:29:37;;;;;;;44.07;27.53;;;7.30;99.90;;;;;;5124764;27;40869;-80
2022/11/10 04:32:24;;;;;;;47.20;27.60;;;7.30;99.90;;;;;;5126197;27;43799;-78
2022/11/10 04:35:12;;;;;;;44.23;27.50;;;7.20;99.90;;;;;;5127932;27;42262;-78
2022/11/10 04:37:58;;;;;;;51.20;27.95;;;7.20;99.90;;;;;;5128662;27;40620;-77
2022/11/10 04:40:45;;;;;;;44.77;26.23;;;7.20;99.90;;;;;;5127318;27;40449;-77
2022/11/10 04:43:31;;;;;;;47.15;26.58;;;7.20;99.90;;;;;;5127754;27;42992;-78
2022/11/10 04:46:22;;;;;;;52.72;28.38;;;7.10;99.90;;;;;;5127905;27;43396;-75
2022/11/10 04:49:10;;;;;;;47.17;27.70;;;7.10;99.90;;;;;;5131934;27;41139;-77
2022/11/10 04:51:57;;;;;;;;;;;7.10;99.90;;;;;;5134652;27;40627;-79
2022/11/10 04:54:44;;;;;;;48.78;28.83;;;7.10;99.90;;;;;;5135492;27;43937;-80
2022/11/10 04:57:30;;;;;;;52.93;29.00;;;7.10;99.90;;;;;;5139578;27;42443;-79
2022/11/10 05:00:18;;;;;;;47.67;28.37;;;7.00;99.90;;;;;;5138307;27;40420;-78
2022/11/10 05:03:06;;;;;;;50.67;29.10;;;7.10;99.90;;;;;;5130232;27;40627;-82
2022/11/10 05:05:52;;;;;;;52.97;28.67;;;7.10;99.90;;;;;;5136563;27;42268;-80
2022/11/10 05:08:43;;;;;;;55.23;31.43;;;7.00;99.90;;;;;;5116144;27;42961;-83
2022/11/10 05:11:29;;;;;;;52.97;29.55;;;7.00;99.90;;;;;;5108191;28;40405;-79
2022/11/10 05:14:16;;;;;;;49.10;29.27;;;7.00;99.90;;;;;;5107911;28;40382;-80
2022/11/10 05:17:03;;;;;;;50.50;28.63;;;7.10;99.90;;;;;;5110740;28;43554;-82
2022/11/10 05:19:49;;;;;;;54.92;29.17;;;7.10;99.90;;;;;;5106717;28;44057;-81
2022/11/10 05:22:36;;;;;;;53.77;30.20;;;7.00;99.90;;;;;;5107609;28;40620;-81
2022/11/10 05:25:24;;;;;;;54.27;28.87;;;7.10;99.90;;;;;;5108356;28;40365;-81
2022/11/10 05:28:12;;;;;;;50.80;28.35;;;7.00;99.90;;;;;;5108217;28;42516;-79
2022/11/10 05:30:58;;;;;;;50.30;29.17;;;7.10;99.90;;;;;;5105875;28;43581;-74
2022/11/10 05:33:45;;;;;;;54.53;30.10;;;7.10;99.90;;;;;;5106377;28;40215;-77
2022/11/10 05:36:32;;;;;;;51.80;28.63;;;7.00;99.90;;;;;;5108965;27;39946;-77
2022/11/10 05:39:18;;;;;;;53.75;29.60;;;6.90;99.90;;;;;;5128102;27;43649;-80
2022/11/10 05:42:06;;;;;;;48.53;28.77;;;7.00;99.90;;;;;;5119350;27;42489;-80
2022/11/10 05:44:52;;;;;;;51.83;28.48;;;7.00;99.90;;;;;;5106489;28;40375;-78
2022/11/10 05:47:39;;;;;;;55.08;30.98;;;7.00;99.90;;;;;;5107399;28;40229;-79
2022/11/10 05:50:25;;;;;;;58.75;29.23;;;7.00;99.90;;;;;;5105291;28;42717;-79
2022/11/10 05:53:12;;;;;;;53.50;28.73;;;7.00;99.90;;;;;;5116404;27;42232;-80
2022/11/10 05:55:58;;;;;;;54.70;30.10;;;7.00;99.90;;;;;;5126087;27;40454;-79
2022/11/10 05:58:47;;;;;;;53.43;30.43;;;7.00;99.90;;;;;;5125703;27;40571;-80
2022/11/10 06:01:33;;;;;;;56.30;30.88;;;7.10;99.90;;;;;;5125546;27;43468;-80
2022/11/10 06:04:19;;;;;;;55.70;29.88;;;7.10;99.90;;;;;;5125243;27;43429;-79
2022/11/10 06:07:06;;;;;;;53.40;29.20;;;7.00;99.90;;;;;;5125842;27;40934;-80
2022/11/10 06:09:54;;;;;;;52.67;29.10;;;7.10;99.90;;;;;;5125348;27;40570;-80
2022/11/10 06:12:40;;;;;;;57.33;29.93;;;7.10;99.90;;;;;;5126114;27;42896;-79
2022/11/10 06:15:28;;;;;;;53.38;28.67;;;7.10;99.90;;;;;;5125812;27;42454;-79
2022/11/10 06:18:14;;;;;;;54.67;29.15;;;7.10;99.90;;;;;;5126576;27;40258;-82
2022/11/10 06:21:01;;;;;;;55.70;29.05;;;7.10;99.90;;;;;;5126213;27;40156;-81
2022/11/10 06:23:47;;;;;;;54.03;29.02;;;7.20;99.90;;;;;;5125954;27;42878;-78
2022/11/10 06:26:34;;;;;;;52.83;28.60;;;7.10;99.90;;;;;;5125633;27;43394;-80
2022/11/10 06:29:21;;;;;;;52.45;28.15;;;7.30;99.90;;;;;;5126469;27;40383;-80
2022/11/10 06:32:10;;;;;;;51.00;27.38;;;7.30;99.90;;;;;;5126106;27;40615;-79
2022/11/10 06:34:56;;;;;;;52.50;28.77;;;7.30;99.90;;;;;;5125852;27;43495;-79
2022/11/10 06:37:43;;;;;;;52.72;29.48;;;7.30;99.90;;;;;;5125428;27;43675;-80
2022/11/10 06:40:30;;;;;;;52.10;28.60;;;7.40;99.90;;;;;;5126043;27;40063;-79
2022/11/10 06:43:17;;;;;;;55.08;29.25;;;7.30;99.90;;;;;;5125685;27;40220;-78
2022/11/10 06:46:04;;;;;;;61.43;29.40;;;7.40;99.90;;;;;;5125103;27;44074;-78
2022/11/10 06:48:52;;;;;;;52.93;30.57;;;7.40;99.90;;;;;;5125925;27;42377;-79
2022/11/10 06:51:39;;;;;;;50.20;27.63;;;7.40;99.90;;;;;;5126261;27;41515;-80
2022/11/10 06:54:25;;;;;;;50.60;27.57;;;7.50;99.90;;;;;;5113898;27;41241;-80
2022/11/10 06:57:12;;;;;;;53.35;27.98;;;7.60;99.90;;;;;;5129411;27;44150;-79
2022/11/10 06:59:58;;;;;;;50.65;27.92;;;7.80;99.90;;;;;;5129043;27;42743;-78
2022/11/10 07:02:45;;;;;;;47.22;27.73;;;7.90;99.90;;;;;;5129030;27;40607;-78
2022/11/10 07:05:34;;;;;;;50.42;27.27;;;7.90;99.90;;;;;;5129233;27;40261;-79
2022/11/10 07:08:21;;;;;;;43.58;25.00;;;7.90;99.90;;;;;;5129437;27;42806;-80
2022/11/10 07:11:07;;;;;;;50.17;29.40;;;7.90;99.90;;;;;;5129204;27;42262;-79
2022/11/10 07:13:54;;;;;;;49.07;28.03;;;7.90;99.90;;;;;;5129176;27;40249;-80
2022/11/10 07:16:40;;;;;;;46.33;26.02;;;7.90;99.90;;;;;;5127463;27;40270;-78
2022/11/10 07:19:27;;;;;;;52.23;29.07;;;7.80;99.90;;;;;;5114622;27;42979;-77
2022/11/10 07:22:15;;;;;;;51.67;27.35;;;7.60;99.90;;;;;;5128406;27;43148;-78
2022/11/10 07:25:02;;;;;;;51.80;28.35;;;7.60;99.90;;;;;;5128523;27;40533;-80
2022/11/10 07:27:53;;;;;;;50.53;28.07;;;7.70;99.90;;;;;;5128104;27;40216;-80
2022/11/10 07:30:40;;;;;;;54.35;28.83;;;7.80;99.90;;;;;;5108145;28;42976;-77
2022/11/10 07:33:27;;;;;;;52.78;29.27;;;7.90;99.90;;;;;;5108208;28;42421;-80
2022/11/10 07:36:14;;;;;;;51.45;28.75;;;8.00;99.90;;;;;;5108253;28;41059;-79
2022/11/10 07:39:01;;;;;;;52.20;28.83;;;8.00;99.90;;;;;;5109339;28;40107;-77
2022/11/10 07:41:48;;;;;;;50.95;28.45;;;8.00;99.90;;;;;;5107924;28;43865;-77
2022/11/10 07:44:35;;;;;;;52.08;28.77;;;7.90;99.90;;;;;;5108072;28;42382;-79
2022/11/10 07:47:21;;;;;;;50.63;29.10;;;8.00;99.90;;;;;;5093061;28;39251;-79
2022/11/10 07:50:08;;;;;;;52.58;29.40;;;8.00;99.90;;;;;;5108126;28;40448;-77
2022/11/10 07:53:03;;;;;;;53.42;28.13;;;7.90;99.90;;;;;;5108374;28;43926;-78
2022/11/10 07:55:51;;;;;;;48.45;27.65;;;8.00;99.90;;;;;;5107969;28;42270;-78
2022/11/10 07:58:37;;;;;;;51.13;27.10;;;8.00;99.90;;;;;;5108198;28;41345;-78
2022/11/10 08:01:24;;;;;;;52.25;29.00;;;8.10;99.90;;;;;;5108167;28;40132;-79
2022/11/10 08:04:10;;;;;;;47.00;27.00;;;7.90;99.90;;;;;;5111155;27;43916;-80
2022/11/10 08:06:57;;;;;;;51.77;29.53;;;8.00;99.90;;;;;;5127763;27;43358;-75
2022/11/10 08:09:44;;;;;;;52.67;27.88;;;8.00;99.90;;;;;;5128061;27;40839;-76
2022/11/10 08:12:32;;;;;;;48.17;28.02;;;8.10;99.90;;;;;;5127634;27;40879;-76
2022/11/10 08:15:18;;;;;;;51.97;27.50;;;8.00;99.90;;;;;;5126780;27;43797;-75
2022/11/10 08:18:07;;;;;;;50.88;28.05;;;7.90;99.90;;;;;;5127727;27;43535;-75
2022/11/10 08:20:54;;;;;;;46.30;26.38;;;7.90;99.90;;;;;;5119524;27;40984;-77
2022/11/10 08:23:42;;;;;;;44.30;24.80;;;7.90;99.90;;;;;;5106462;28;40887;-77
2022/11/10 08:26:28;;;;;;;46.35;26.52;;;7.90;99.90;;;;;;5124960;27;42911;-78
2022/11/10 08:29:16;;;;;;;48.27;26.47;;;7.90;99.90;;;;;;5112173;27;43119;-77
2022/11/10 08:32:04;;;;;;;48.15;26.15;;;8.00;99.90;;;;;;5112234;27;40319;-78
2022/11/10 08:34:51;;;;;;;50.00;27.52;;;7.90;99.90;;;;;;5106917;28;41317;-77
2022/11/10 08:37:37;;;;;;;49.20;25.85;;;8.00;99.90;;;;;;5120091;27;43060;-78
2022/11/10 08:40:27;;;;;;;47.22;24.48;;;8.00;99.90;;;;;;5127258;27;42534;-76
2022/11/10 08:43:14;;;;;;;46.92;25.67;;;8.10;99.90;;;;;;5127411;27;40998;-77
2022/11/10 08:46:02;;;;;;;;;;;8.10;99.90;;;;;;5127411;27;40447;-76
2022/11/10 08:48:48;;;;;;;45.45;24.55;;;8.20;99.90;;;;;;5128068;27;43827;-77
2022/11/10 08:51:35;;;;;;;47.10;25.10;;;8.30;99.90;;;;;;5126228;27;43702;-76
2022/11/10 08:54:21;;;;;;;44.20;23.98;;;8.40;99.90;;;;;;5111921;27;39672;-76
2022/11/10 08:57:07;;;;;;;43.00;25.13;;;8.70;99.90;;;;;;5126795;27;39844;-78
2022/11/10 08:59:54;;;;;;;42.70;24.88;;;8.90;96.60;;;;;;5126484;27;43704;-75
2022/11/10 09:02:42;;;;;;;41.70;23.27;;;8.80;89.30;;;;;;5126754;27;43270;-76
2022/11/10 09:05:28;;;;;;;48.20;24.75;;;8.70;80.60;;;;;;5126308;27;41020;-76
2022/11/10 09:08:15;;;;;;;44.10;25.10;;;8.50;89.00;;;;;;5126160;27;39916;-77
2022/11/10 09:11:03;;;;;;;46.85;25.67;;;8.40;90.70;;;;;;5126241;27;44078;-76
2022/11/10 09:13:49;;;;;;;46.63;25.15;;;8.10;99.90;;;;;;5126307;27;42406;-76
2022/11/10 09:16:36;;;;;;;45.87;24.23;;;8.40;99.90;;;;;;5125982;27;41466;-78
2022/11/10 09:19:24;;;;;;;46.63;24.27;;;8.30;99.90;;;;;;5126212;27;40970;-79
2022/11/10 09:22:11;;;;;;;54.22;25.75;;;8.50;99.90;;;;;;5126252;27;44016;-79
2022/11/10 09:24:57;;;;;;;46.67;25.50;;;8.50;96.90;;;;;;5126370;27;43092;-80
2022/11/10 09:27:44;;;;;;;52.40;26.53;;;8.50;99.90;;;;;;5125880;27;41508;-76
2022/11/10 09:30:30;;;;;;;47.45;24.98;;;8.80;98.60;;;;;;5129648;27;40381;-77
2022/11/10 09:33:17;;;;;;;49.42;25.52;;;8.70;89.20;;;;;;5125932;27;43875;-79
2022/11/10 09:36:06;;;;;;;47.90;25.57;;;8.90;89.40;;;;;;5126146;27;42129;-77
2022/11/10 09:38:52;;;;;;;50.30;25.52;;;8.60;88.30;;;;;;5127837;27;40519;-78
2022/11/10 09:41:40;;;;;;;46.00;24.90;;;8.70;89.20;;;;;;5111577;27;40197;-77
2022/11/10 09:44:29;;;;;;;42.70;24.48;;;9.00;89.50;;;;;;5111148;27;43896;-79
2022/11/10 09:47:19;;;;;;;47.03;24.42;;;9.20;63.90;;;;;;5125445;27;42367;-77
2022/11/10 09:50:07;;;;;;;45.63;24.80;;;9.20;52.00;;;;;;5126061;27;40928;-77
2022/11/10 09:52:55;;;;;;;47.58;26.00;;;9.20;45.70;;;;;;5125394;27;40396;-78
2022/11/10 09:55:44;;;;;;;46.13;25.63;;;8.80;54.30;;;;;;5125783;27;43824;-77
2022/11/10 09:58:35;;;;;;;47.40;26.38;;;8.80;59.80;;;;;;5125963;27;42935;-77
2022/11/10 10:01:34;;;;;;;52.70;27.38;;;8.80;74.40;;;;;;5125713;27;40539;-77
2022/11/10 10:04:49;;;;;;;53.65;28.38;;;8.70;79.50;;;;;;5125884;27;40148;-76
2022/11/10 10:07:41;;;;;;;50.92;26.33;;;8.70;89.20;;;;;;5110351;27;41881;-75
2022/11/10 10:10:33;;;;;;;51.67;27.13;;;8.90;89.40;;;;;;5125614;27;42391;-75
2022/11/10 10:13:44;;;;;;;55.60;29.67;;;8.90;73.40;;;;;;5125635;27;39973;-74
2022/11/10 10:16:36;;;;;;;55.65;29.38;;;8.80;70.30;;;;;;5125102;27;41325;-75
2022/11/10 10:19:30;;;;;;;55.20;29.85;;;8.70;82.10;;;;;;5125332;27;43444;-76
2022/11/10 10:22:35;;;;;;;58.63;29.17;;;8.80;81.30;;;;;;5125399;27;42313;-75
2022/11/10 10:25:23;;;;;;;55.45;28.88;;;9.00;82.60;;;;;;5125419;27;40278;-76
2022/11/10 10:28:16;;;;;;;51.50;28.58;;;9.10;56.70;;;;;;5111663;27;39086;-74
2022/11/10 10:31:15;;;;;;;62.00;33.60;;;8.90;70.60;;;;;;5129108;27;43160;-75
2022/11/10 10:34:02;;;;;;;57.70;31.48;;;8.60;89.10;;;;;;5113909;27;43056;-76
2022/11/10 10:36:48;;;;;;;59.58;30.70;;;8.50;94.30;;;;;;5128952;27;39856;-75
2022/11/10 10:39:38;;;;;;;59.30;30.88;;;8.50;98.90;;;;;;5113222;27;39280;-75
2022/11/10 10:42:31;;;;;;;62.70;32.50;;;8.40;99.90;;;;;;5113595;27;42610;-75
2022/11/10 10:45:21;;;;;;;63.00;32.15;;;8.40;99.90;;;;;;5128327;27;42396;-75
2022/11/10 10:48:25;;;;;;;61.17;33.30;;;8.30;99.90;;;;;;5129056;27;41169;-76
2022/11/10 10:51:11;;;;;;;63.35;32.53;;;8.60;99.90;;;;;;5128945;27;40138;-75
2022/11/10 10:53:58;;;;;;;64.50;32.03;;;8.70;99.90;;;;;;5128717;27;43055;-75
2022/11/10 10:56:44;;;;;;;60.65;32.65;;;8.80;97.00;;;;;;5128857;27;43250;-75
2022/11/10 10:59:31;;;;;;;60.72;31.63;;;8.70;95.80;;;;;;5128730;27;40324;-76
2022/11/10 11:02:26;;;;;;;63.90;33.45;;;8.60;94.40;;;;;;5131761;27;41035;-74
2022/11/10 11:05:15;;;;;;;64.65;32.65;;;8.50;95.20;;;;;;5128529;27;42847;-76
2022/11/10 11:08:02;;;;;;;65.07;34.25;;;8.60;94.70;;;;;;5128184;27;43078;-76
2022/11/10 11:10:49;;;;;;;60.40;31.88;;;8.60;94.30;;;;;;5128546;27;41602;-76
2022/11/10 11:13:35;;;;;;;58.20;33.07;;;8.40;99.90;;;;;;5127905;27;39942;-75
2022/11/10 11:16:22;;;;;;;54.90;31.03;;;8.40;99.90;;;;;;5128462;27;43318;-75
2022/11/10 11:19:10;;;;;;;61.40;31.60;;;8.50;99.90;;;;;;5128401;27;43243;-75
2022/11/10 11:22:06;;;;;;;61.67;32.33;;;8.50;99.90;;;;;;5128134;27;40523;-76
2022/11/10 11:24:58;;;;;;;65.07;32.30;;;8.50;99.90;;;;;;5128160;27;40225;-74
2022/11/10 11:27:53;;;;;;;66.15;35.83;;;8.40;99.90;;;;;;5127894;27;43637;-74
2022/11/10 11:30:49;;;;;;;66.72;34.72;;;8.30;99.90;;;;;;5113070;27;42464;-75
2022/11/10 11:33:40;;;;;;;71.35;35.67;;;8.20;99.90;;;;;;5127990;27;40359;-75
2022/11/10 11:36:36;;;;;;;68.50;34.70;;;8.10;99.90;;;;;;5128107;27;40411;-76
2022/11/10 11:39:32;;;;;;;71.03;34.78;;;8.10;99.90;;;;;;5130111;27;43560;-76
2022/11/10 11:42:29;;;;;;;70.18;36.22;;;8.20;99.90;;;;;;5127396;27;43216;-76
2022/11/10 11:45:18;;;;;;;65.82;34.20;;;8.20;99.90;;;;;;5127874;27;40325;-76
2022/11/10 11:48:38;;;;;;;63.47;34.50;;;8.10;99.90;;;;;;5128050;27;40763;-74
2022/11/10 11:51:31;;;;;;;72.57;36.95;;;8.10;99.90;;;;;;5127550;27;43146;-75
2022/11/10 11:54:39;;;;;;;69.82;33.50;;;8.10;99.90;;;;;;5127602;27;43264;-75
2022/11/10 11:57:31;;;;;;;67.90;34.15;;;8.10;99.90;;;;;;5130846;27;40676;-75
2022/11/10 12:00:18;;;;;;;72.57;35.38;;;8.10;99.90;;;;;;5127608;27;40981;-74
2022/11/10 12:03:22;;;;;;;74.70;37.38;;;8.10;99.90;;;;;;5127693;27;42789;-75
2022/11/10 12:06:28;;;;;;;68.63;33.92;;;8.00;99.90;;;;;;5127452;27;43443;-74
2022/11/10 12:09:21;;;;;;;69.00;36.25;;;8.10;99.90;;;;;;5127586;27;41130;-76
2022/11/10 12:12:21;;;;;;;72.70;35.67;;;8.10;99.90;;;;;;5126680;27;40303;-75
2022/11/10 12:15:23;;;;;;;68.28;34.20;;;8.10;99.90;;;;;;5127204;27;42768;-76
2022/11/10 12:18:18;;;;;;;72.20;34.45;;;8.10;99.90;;;;;;5127400;27;43335;-75
2022/11/10 12:21:16;;;;;;;74.55;35.40;;;8.00;99.90;;;;;;5127238;27;40291;-76
2022/11/10 12:24:22;;;;;;;72.93;35.65;;;8.00;99.90;;;;;;5127083;27;39890;-73
2022/11/10 12:27:13;;;;;;;79.97;39.38;;;8.10;99.90;;;;;;5126655;27;44340;-75
2022/11/10 12:30:04;;;;;;;86.30;41.28;;;8.00;99.90;;;;;;5127001;27;43479;-75
2022/11/10 12:32:54;;;;;;;86.43;40.00;;;8.00;99.90;;;;;;5127171;27;40310;-77
2022/11/10 12:35:43;;;;;;;75.68;39.58;;;8.00;99.90;;;;;;5127071;27;39738;-75
2022/11/10 12:38:43;;;;;;;83.45;41.15;;;8.00;99.90;;;;;;5127979;27;43789;-75
2022/11/10 12:41:37;;;;;;;80.80;38.75;;;8.00;99.90;;;;;;5126448;27;43241;-76
2022/11/10 12:44:28;;;;;;;84.72;39.35;;;7.90;99.90;;;;;;5111971;27;41030;-75
2022/11/10 12:47:17;;;;;;;80.97;39.58;;;8.00;99.90;;;;;;5126796;27;41052;-76
2022/11/10 12:50:19;;;;;;;79.55;37.80;;;7.90;99.90;;;;;;5129078;27;43817;-75
2022/11/10 12:53:11;;;;;;;88.75;40.60;;;8.00;99.90;;;;;;5126640;27;42448;-74
2022/11/10 12:56:01;;;;;;;82.75;40.55;;;7.90;99.90;;;;;;5111371;27;40374;-75
2022/11/10 12:58:49;;;;;;;94.20;40.70;;;7.90;99.90;;;;;;5126738;27;41256;-77
2022/11/10 13:01:42;;;;;;;88.85;41.53;;;7.90;99.90;;;;;;5111391;27;43197;-75
2022/11/10 13:04:30;;;;;;;86.38;39.85;;;7.90;99.90;;;;;;5126410;27;42651;-75
2022/11/10 13:07:24;;;;;;;87.22;40.80;;;7.90;99.90;;;;;;5126623;27;40906;-76
2022/11/10 13:10:22;;;;;;;95.38;42.53;;;7.90;99.90;;;;;;5125821;27;40515;-77
2022/11/10 13:13:14;;;;;;;93.75;40.03;;;7.90;99.90;;;;;;5126418;27;44020;-76
2022/11/10 13:16:02;;;;;;;86.28;40.63;;;7.90;99.90;;;;;;5126378;27;43594;-77
2022/11/10 13:18:57;;;;;;;82.18;37.88;;;7.80;99.90;;;;;;5126400;27;41009;-76
2022/11/10 13:22:11;;;;;;;89.35;40.58;;;7.80;99.90;;;;;;5126428;27;40865;-75
2022/11/10 13:26:00;;;;;;;89.07;41.08;;;7.80;99.90;;;;;;5122012;27;43251;-76
2022/11/10 13:29:01;;;;;;;86.22;39.47;;;7.80;99.90;;;;;;5126122;27;42741;-74
2022/11/10 13:31:54;;;;;;;94.70;42.28;;;7.80;99.90;;;;;;5110923;27;39121;-75
2022/11/10 13:34:41;;;;;;;81.35;38.08;;;7.80;99.90;;;;;;5126120;27;41329;-75
2022/11/10 13:37:49;;;;;;;78.60;37.97;;;7.80;99.90;;;;;;5125747;27;43099;-74
2022/11/10 13:40:38;;;;;;;73.30;35.03;;;7.80;99.90;;;;;;5125667;27;43383;-75
2022/11/10 13:43:26;;;;;;;75.15;35.67;;;7.80;99.90;;;;;;5129031;27;40173;-75
2022/11/10 13:46:13;;;;;;;78.28;35.03;;;7.70;99.90;;;;;;5126051;27;40335;-76
2022/11/10 13:49:25;;;;;;;74.47;35.78;;;7.70;99.90;;;;;;5126249;27;43837;-78
2022/11/10 13:52:16;;;;;;;73.30;34.53;;;7.80;99.90;;;;;;5126192;27;43259;-77
2022/11/10 13:55:19;;;;;;;77.90;37.40;;;7.80;99.90;;;;;;5125960;27;40452;-77
2022/11/10 13:58:09;;;;;;;75.10;33.55;;;7.90;99.90;;;;;;5125932;27;39769;-78
2022/11/10 14:01:25;;;;;;;76.97;34.97;;;7.90;99.90;;;;;;5126012;27;42953;-77
2022/11/10 14:04:38;;;;;;;71.38;35.15;;;7.80;99.90;;;;;;5125870;27;42532;-78
2022/11/10 14:07:24;;;;;;;67.75;34.28;;;7.80;99.90;;;;;;5126142;27;40613;-78
2022/11/10 14:10:14;;;;;;;68.57;35.08;;;7.80;99.90;;;;;;5125996;27;41031;-78
2022/11/10 14:13:04;;;;;;;70.93;35.63;;;7.80;99.90;;;;;;5126270;27;43047;-77
2022/11/10 14:15:52;;;;;;;72.65;34.47;;;7.70;99.90;;;;;;5126378;27;43646;-79
2022/11/10 14:18:40;;;;;;;66.38;34.05;;;7.80;99.90;;;;;;5126039;27;40280;-77
2022/11/10 14:21:32;;;;;;;66.28;31.77;;;7.70;99.90;;;;;;5126068;27;40484;-76
2022/11/10 14:24:22;;;;;;;64.20;32.22;;;7.70;99.90;;;;;;5125889;27;42830;-76
2022/11/10 14:27:15;;;;;;;63.30;31.50;;;7.70;99.90;;;;;;5125448;27;42719;-78
2022/11/10 14:30:19;;;;;;;66.05;32.53;;;7.70;99.90;;;;;;5125353;27;40290;-79
2022/11/10 14:33:10;;;;;;;63.53;31.92;;;7.70;99.90;;;;;;5125425;27;40795;-79
2022/11/10 14:35:59;;;;;;;63.47;30.85;;;7.80;99.90;;;;;;5125274;27;43029;-78
2022/11/10 14:38:47;;;;;;;62.45;30.83;;;7.80;99.90;;;;;;5126394;27;42588;-79
2022/11/10 14:41:33;;;;;;;61.83;31.63;;;7.70;99.90;;;;;;5125140;27;40212;-78